Austin Bergstrom International Airport
KAUS : now visible

Airfield :











YOU CAN JOIN US ON...

 
LOGIN :

Register | Disclaimer

   EN    FR    IT 

 









Legend :    VFR   Marginal VFR   IFR   Intensive IFR   Very Intensive IFR
Visi :
Ceiling :
>= 8 km
>= 3000ft
5 to 8 km
1000 to 3000 ft
1500m to 5 km
500 to 1000 ft
800 to 1500m
200 to 500 ft
< 800m
< 200 ft
Symbols :   Thunderstorms  Fog  Heavy snow  Heavy precipitations  Wind > 20 kt






- Airport Elevation : 542 ft
- IATA code : AUS


KAUS - Austin Bergstrom International

CURRENT METAR :
  • 021653Z VRB06KT 10SM FEW036 FEW250 32/21 A2996 RMK AO2 SLP131 T03220211

EXPIRED METARs :
  • 021553Z 20009KT 170V240 10SM FEW032 31/22 A2996 RMK AO2 SLP133 T03110217
  • 021453Z 21011G19KT 10SM FEW025 29/22 A2996 RMK AO2 SLP132 T02940222 51007
  • 020253Z 15006KT 10SM FEW045 SCT250 30/20 A2987 RMK AO2 SLP102 T03000200 53006

TAF KAUS
Valid from the 02 at 15:00 until the 03 at 18:00 UTC


021511Z 0215/0318 20010G20KT P6SM FEW035 FEW250
FM022000 14012G22KT P6SM SCT060 SCT250
FM030400 16006KT P6SM FEW060 FEW250
FM030700 18006KT P6SM BKN018
FM031500 18009KT P6SM FEW025
KZHU FIR / North America



MET'MAP, your aeronautical weather chart ! - Copyright ORBIFLY December 2007 - Disclaimer

ORBIFLY MET'MAP TEAM :

Programming & Development : Alexandra Zaïnal
Original concept : Baudouin d'Aumeries
Technical & hardware support : Manuel Goepfert
Assistance : Marc-Olivier Méhu




SOURCES & CREDITS :

   NOAA       Earth
Advisory